createdAt,value
2022-12-25T00:01:58.825Z,1.50
2022-12-25T00:07:02.409Z,1.53
2022-12-25T00:12:06.239Z,1.60
2022-12-25T00:17:11.133Z,1.10
2022-12-25T00:22:14.784Z,1.20
2022-12-25T00:27:18.388Z,1.20
2022-12-25T00:32:23.913Z,1.07
2022-12-25T00:37:27.856Z,1.30
2022-12-25T00:42:31.438Z,0.97
2022-12-25T00:47:36.450Z,1.20
2022-12-25T00:52:40.187Z,1.07
2022-12-25T00:57:43.841Z,1.30
2022-12-25T01:02:48.825Z,1.40
2022-12-25T01:07:52.492Z,1.30
2022-12-25T01:12:56.185Z,0.93
2022-12-25T01:18:07.299Z,0.93
2022-12-25T01:23:11.376Z,1.20
2022-12-25T01:28:15.059Z,1.10
2022-12-25T01:33:20.383Z,1.27
2022-12-25T01:38:24.323Z,1.43
2022-12-25T01:43:30.812Z,1.40
2022-12-25T01:48:38.758Z,1.10
2022-12-25T01:53:42.326Z,1.20
2022-12-25T01:58:45.911Z,1.17
2022-12-25T02:03:51.194Z,1.20
2022-12-25T02:08:54.749Z,1.23
2022-12-25T02:13:58.390Z,1.67
2022-12-25T02:19:12.696Z,1.07
2022-12-25T02:24:36.458Z,1.20
2022-12-25T02:29:48.939Z,1.30
2022-12-25T02:35:00.143Z,1.20
2022-12-25T02:40:10.239Z,1.13
2022-12-25T02:45:35.467Z,0.87
2022-12-25T02:50:56.489Z,1.00
2022-12-25T02:56:18.207Z,1.10
2022-12-25T03:01:46.970Z,0.80
2022-12-25T03:07:02.987Z,0.80
2022-12-25T03:12:17.245Z,1.23
2022-12-25T03:17:22.695Z,1.13
2022-12-25T03:22:47.013Z,1.57
2022-12-25T03:27:55.285Z,1.20
2022-12-25T03:33:36.633Z,1.40
2022-12-25T03:38:55.344Z,1.23
2022-12-25T03:44:26.828Z,1.33
2022-12-25T03:49:56.422Z,1.13
2022-12-25T03:55:20.599Z,1.13
2022-12-25T04:00:50.026Z,1.20
2022-12-25T04:06:13.098Z,1.40
2022-12-25T04:11:34.248Z,1.17
2022-12-25T04:16:55.495Z,0.93
2022-12-25T04:22:18.012Z,0.90
2022-12-25T04:27:38.792Z,0.70
2022-12-25T04:32:59.976Z,0.80
2022-12-25T04:38:04.955Z,0.87
2022-12-25T04:43:08.514Z,0.80
2022-12-25T04:48:13.355Z,1.00
2022-12-25T04:53:19.396Z,0.70
2022-12-25T04:58:22.966Z,0.97
2022-12-25T05:03:26.523Z,0.80
2022-12-25T05:08:31.871Z,0.80
2022-12-25T05:13:35.644Z,0.80
2022-12-25T05:18:39.378Z,1.00
2022-12-25T05:23:48.540Z,1.07
2022-12-25T05:28:52.517Z,1.23
2022-12-25T05:33:56.142Z,1.10
2022-12-25T05:39:01.083Z,1.00
2022-12-25T05:44:05.021Z,1.40
2022-12-25T05:49:08.711Z,1.07
2022-12-25T05:54:13.908Z,0.90
2022-12-25T05:59:17.473Z,1.20
2022-12-25T06:04:21.088Z,1.47
2022-12-25T06:09:26.119Z,1.20
2022-12-25T06:14:29.817Z,1.20
2022-12-25T06:19:33.340Z,1.70
2022-12-25T06:24:38.416Z,1.37
2022-12-25T06:29:42.002Z,1.30
2022-12-25T06:34:45.695Z,1.20
2022-12-25T06:39:50.719Z,1.40
2022-12-25T06:44:56.454Z,1.60
2022-12-25T06:49:59.966Z,1.70
2022-12-25T06:55:05.843Z,1.17
2022-12-25T07:00:10.596Z,1.60
2022-12-25T07:05:14.277Z,1.43
2022-12-25T07:10:19.242Z,1.70
2022-12-25T07:15:22.848Z,2.07
2022-12-25T07:20:26.865Z,2.07
2022-12-25T07:25:37.024Z,1.77
2022-12-25T07:30:41.144Z,1.63
2022-12-25T07:35:44.996Z,1.90
2022-12-25T07:40:50.154Z,1.63
2022-12-25T07:45:58.619Z,2.20
2022-12-25T07:51:04.194Z,1.87
2022-12-25T07:56:11.812Z,1.70
2022-12-25T08:01:18.123Z,2.00
2022-12-25T08:06:24.895Z,1.73
2022-12-25T08:11:29.892Z,1.77
2022-12-25T08:16:33.903Z,1.73
2022-12-25T08:21:37.602Z,1.93
2022-12-25T08:26:43.336Z,2.10
2022-12-25T08:31:49.480Z,2.07
2022-12-25T08:36:53.255Z,1.47
2022-12-25T08:41:58.535Z,1.73
2022-12-25T08:47:02.227Z,1.53
2022-12-25T08:52:06.082Z,1.37
2022-12-25T08:57:11.222Z,1.40
2022-12-25T09:02:14.931Z,1.80
2022-12-25T09:07:18.876Z,2.07
2022-12-25T09:12:23.959Z,1.70
2022-12-25T09:17:27.587Z,2.00
2022-12-25T09:22:31.212Z,1.63
2022-12-25T09:27:36.501Z,2.23
2022-12-25T09:32:40.506Z,1.80
2022-12-25T09:37:44.275Z,1.50
2022-12-25T09:42:50.397Z,1.40
2022-12-25T09:47:57.660Z,1.27
2022-12-25T09:53:07.334Z,1.23
2022-12-25T09:58:13.709Z,1.00
2022-12-25T10:03:31.908Z,1.20
2022-12-25T10:08:54.535Z,1.17
2022-12-25T10:14:15.423Z,1.10
2022-12-25T10:19:29.609Z,1.43
2022-12-25T10:24:37.413Z,1.27
2022-12-25T10:29:43.563Z,1.40
2022-12-25T10:34:47.280Z,1.40
2022-12-25T10:39:50.913Z,1.30
2022-12-25T10:45:01.676Z,1.63
2022-12-25T10:50:11.732Z,1.40
2022-12-25T10:55:26.560Z,1.27
2022-12-25T11:00:34.026Z,1.40
2022-12-25T11:05:37.851Z,1.33
2022-12-25T11:10:43.859Z,1.20
2022-12-25T11:15:50.131Z,1.10
2022-12-25T11:20:55.295Z,1.60
2022-12-25T11:26:00.738Z,1.93
2022-12-25T11:31:10.187Z,1.70
2022-12-25T11:36:21.320Z,2.23
2022-12-25T11:41:32.484Z,1.67
2022-12-25T11:46:44.093Z,2.20
2022-12-25T11:51:50.523Z,2.20
2022-12-25T11:56:54.507Z,1.90
2022-12-25T12:02:03.830Z,1.93
2022-12-25T12:07:17.990Z,1.70
2022-12-25T12:12:27.734Z,1.50
2022-12-25T12:17:33.789Z,1.50
2022-12-25T12:22:37.391Z,2.17
2022-12-25T12:27:42.327Z,2.30
2022-12-25T12:32:52.316Z,1.60
2022-12-25T12:37:59.874Z,1.60
2022-12-25T12:43:04.176Z,1.70
2022-12-25T12:48:26.169Z,2.63
2022-12-25T12:53:32.914Z,2.27
2022-12-25T12:58:40.264Z,2.17
2022-12-25T13:04:01.614Z,2.20
2022-12-25T13:09:17.173Z,2.07
2022-12-25T13:14:23.025Z,2.27
2022-12-25T13:19:29.933Z,2.07
2022-12-25T13:24:35.327Z,1.73
2022-12-25T13:29:39.821Z,1.87
2022-12-25T13:34:44.884Z,1.70
2022-12-25T13:39:52.205Z,2.80
2022-12-25T13:45:01.887Z,2.00
2022-12-25T13:50:18.973Z,1.50
2022-12-25T13:55:24.858Z,1.40
2022-12-25T14:00:33.503Z,1.63
2022-12-25T14:05:43.353Z,1.73
2022-12-25T14:10:50.637Z,1.43
2022-12-25T14:15:55.026Z,1.40
2022-12-25T14:21:03.457Z,1.70
2022-12-25T14:26:07.378Z,1.70
2022-12-25T14:31:13.388Z,1.40
2022-12-25T14:36:19.013Z,1.50
2022-12-25T14:41:33.617Z,1.47
2022-12-25T14:46:37.586Z,1.30
2022-12-25T14:51:44.706Z,1.80
2022-12-25T14:56:49.259Z,1.63
2022-12-25T15:01:57.173Z,1.20
2022-12-25T15:07:07.260Z,1.27
2022-12-25T15:12:11.591Z,1.00
2022-12-25T15:17:24.426Z,1.40
2022-12-25T15:22:47.781Z,1.20
2022-12-25T15:27:53.947Z,1.23
2022-12-25T15:32:57.448Z,1.40
2022-12-25T15:38:02.643Z,1.27
2022-12-25T15:43:11.423Z,2.10
2022-12-25T15:48:24.527Z,2.50
2022-12-25T15:53:29.424Z,1.70
2022-12-25T15:58:33.121Z,2.00
2022-12-25T16:03:36.951Z,2.20
2022-12-25T16:08:42.616Z,2.03
2022-12-25T16:13:46.138Z,1.90
2022-12-25T16:18:49.771Z,1.77
2022-12-25T16:23:54.780Z,1.77
2022-12-25T16:29:03.595Z,1.83
2022-12-25T16:34:11.209Z,2.03
2022-12-25T16:39:16.071Z,1.70
2022-12-25T16:44:19.600Z,2.10
2022-12-25T16:49:23.645Z,2.10
2022-12-25T16:54:28.839Z,1.93
2022-12-25T16:59:32.956Z,1.83
2022-12-25T17:04:36.639Z,1.60
2022-12-25T17:09:44.577Z,1.70
2022-12-25T17:14:48.260Z,1.90
2022-12-25T17:19:51.819Z,2.13
2022-12-25T17:24:56.721Z,1.90
2022-12-25T17:30:00.277Z,1.40
2022-12-25T17:35:03.959Z,2.20
2022-12-25T17:40:10.802Z,1.67
2022-12-25T17:45:14.922Z,1.10
2022-12-25T17:50:18.694Z,1.17
2022-12-25T17:55:23.571Z,1.70
2022-12-25T18:00:27.262Z,2.03
2022-12-25T18:05:30.845Z,1.53
2022-12-25T18:10:38.709Z,1.00
2022-12-25T18:15:42.789Z,1.17
2022-12-25T18:20:46.359Z,1.20
2022-12-25T18:25:53.203Z,1.50
2022-12-25T18:30:56.851Z,1.40
2022-12-25T18:36:02.524Z,1.63
2022-12-25T18:41:09.145Z,1.47
2022-12-25T18:46:12.673Z,1.30
2022-12-25T18:51:16.338Z,0.83
2022-12-25T18:56:21.454Z,0.90
2022-12-25T19:01:26.175Z,1.20
2022-12-25T19:06:32.695Z,0.90
2022-12-25T19:11:44.016Z,1.00
2022-12-25T19:16:51.927Z,1.17
2022-12-25T19:21:57.136Z,0.90
2022-12-25T19:27:02.183Z,0.80
2022-12-25T19:32:06.179Z,0.97
2022-12-25T19:37:10.248Z,0.73
2022-12-25T19:42:15.977Z,1.00
2022-12-25T19:47:19.663Z,1.10
2022-12-25T19:52:23.263Z,0.90
2022-12-25T19:57:28.289Z,0.90
2022-12-25T20:02:32.112Z,0.73
2022-12-25T20:07:37.323Z,0.90
2022-12-25T20:12:42.268Z,0.90
2022-12-25T20:17:47.671Z,0.73
2022-12-25T20:22:51.140Z,0.50
2022-12-25T20:27:56.185Z,0.63
2022-12-25T20:32:59.729Z,0.60
2022-12-25T20:38:03.771Z,0.70
2022-12-25T20:43:08.901Z,0.90
2022-12-25T20:48:13.302Z,0.77
2022-12-25T20:53:17.408Z,0.80
2022-12-25T20:58:22.428Z,0.90
2022-12-25T21:03:26.304Z,0.90
2022-12-25T21:08:30.518Z,1.00
2022-12-25T21:13:38.535Z,1.20
2022-12-25T21:18:42.154Z,0.93
2022-12-25T21:23:46.550Z,1.00
2022-12-25T21:28:55.358Z,0.83
2022-12-25T21:33:59.298Z,1.30
2022-12-25T21:39:05.423Z,1.33
2022-12-25T21:44:12.011Z,1.03
2022-12-25T21:49:36.301Z,1.00
2022-12-25T21:54:40.285Z,0.90
2022-12-25T21:59:45.167Z,1.00
2022-12-25T22:04:48.697Z,1.13
2022-12-25T22:09:52.905Z,0.93
2022-12-25T22:15:02.802Z,0.83
2022-12-25T22:20:08.536Z,1.00
2022-12-25T22:25:13.368Z,1.13
2022-12-25T22:30:20.910Z,1.23
2022-12-25T22:35:24.984Z,1.10
2022-12-25T22:40:29.122Z,0.70
2022-12-25T22:45:34.037Z,1.17
2022-12-25T22:50:37.559Z,1.00
2022-12-25T22:55:45.890Z,1.07
2022-12-25T23:00:50.844Z,0.80
2022-12-25T23:05:55.725Z,0.90
2022-12-25T23:11:03.299Z,0.50
2022-12-25T23:16:13.650Z,0.90
2022-12-25T23:21:36.648Z,0.50
2022-12-25T23:26:40.214Z,0.70
2022-12-25T23:31:53.372Z,0.70
2022-12-25T23:36:56.918Z,0.80
2022-12-25T23:42:01.160Z,0.70
2022-12-25T23:47:06.196Z,0.50
2022-12-25T23:52:13.867Z,0.40
2022-12-25T23:57:17.358Z,0.67
